• Join FlightAware (Why Join?)
  • Login
  • US Flag 
08:57AM EDT


 

Airport Tracker/Info


-or-


 

Live Flight TrackerFlight Track Log ✈ AWE3434 ✈ 04-Mar-2014 ✈ KPHL - KCMH

Flight Track Log - Related Links

Times and Time Zones

All times are in EST time to prevent confusion due to time zone crossing. See the AWE3434 flight status page for this flight to view local times or setup timezone preferences in your user account.

Time Position Orientation Groundspeed Altitude Reporting Facility
EST Latitude Longitude Course Direction KTS MPH feet Rate Location/Type
02:26PM 39.8667 -75.2667 270° West 152 175 1,000  Level Philadelphia TRACON
02:26PM 39.8500 -75.3167 247° West 180 207 2,100 2,400 Climbing Philadelphia TRACON
02:27PM 39.8500 -75.3833 270° West 237 273 4,600 2,640 Climbing Philadelphia TRACON
02:28PM 39.9098 -75.6393 288° West  Level FlightAware Approximate
02:29PM 39.9000 -75.7759 270° West  Level FlightAware Approximate
02:29PM 39.8569 -75.5844 273° West 275 316 10,000  Level New York Center
02:30PM 39.9000 -75.9162 270° West  Level FlightAware Approximate
02:30PM 39.8669 -75.6961 277° West 302 348 12,500  Level New York Center
02:31PM 39.9000 -76.0566 270° West  Level FlightAware Approximate
02:31PM 39.8767 -75.8075 277° West 317 365 15,500  Level New York Center
02:32PM 39.8864 -75.9192 277° West 308 354 16,100 2,160 Climbing New York Center
02:34PM 39.9039 -76.1344 276° West 314 361 22,000 2,880 Climbing New York Center
02:35PM 39.9108 -76.2567 274° West 314 361 24,900 2,400 Climbing New York Center
02:36PM 39.9142 -76.3653 272° West 314 361 26,800 1,980 Climbing New York Center
02:37PM 39.9211 -76.4794 275° West 314 361 28,900 1,560 Climbing New York Center
02:38PM 39.9242 -76.5908 272° West 314 361 30,000 540 Climbing New York Center
02:39PM 39.9269 -76.6994 272° West 314 361 30,000  Level New York Center
02:40PM 39.9317 -76.8108 273° West 314 361 30,000  Level New York Center
02:41PM 39.9364 -76.9222 273° West 314 361 30,000  Level New York Center
02:42PM 39.9403 -77.0444 272° West 314 361 30,000  Level New York Center
02:43PM 39.9444 -77.1614 273° West 326 375 30,000  Level New York Center
02:44PM 39.9483 -77.2808 272° West 331 381 30,000  Level New York Center
02:45PM 39.9519 -77.4058 272° West 331 381 30,000  Level New York Center
02:47PM 39.9614 -77.6197 273° West 335 386 30,000  Level Cleveland Center
02:48PM 39.9647 -77.7389 272° West 331 381 30,000  Level Cleveland Center
02:49PM 39.9678 -77.8600 272° West 332 382 30,000  Level Cleveland Center
02:50PM 39.9725 -78.0036 273° West 332 382 30,000  Level Cleveland Center
02:51PM 39.9747 -78.1214 271° West 331 381 30,000 -60 Level Cleveland Center
02:52PM 39.9781 -78.2386 272° West 326 375 29,900 -480 Descending Cleveland Center
02:53PM 39.9814 -78.3653 272° West 329 379 29,100 -480 Descending Cleveland Center
02:54PM 39.9847 -78.4908 272° West 342 394 29,000 -60 Descending Cleveland Center
02:55PM 39.9875 -78.6164 272° West 344 396 29,000 -300 Level Cleveland Center
02:57PM 39.9897 -78.7403 271° West 344 396 28,500 -540 Descending Cleveland Center
02:58PM 39.9936 -78.8633 272° West 343 395 28,000 -300 Descending Cleveland Center
02:59PM 39.9953 -78.9928 271° West 342 394 28,000  Level Cleveland Center
03:00PM 39.9983 -79.1411 272° West 342 394 28,000  Level Cleveland Center
03:01PM 40.0008 -79.2650 272° West 342 394 28,000  Level Cleveland Center
03:02PM 40.0028 -79.3883 271° West 340 391 28,000  Level Cleveland Center
03:03PM 40.0050 -79.5117 271° West 340 391 28,000  Level Cleveland Center
03:04PM 40.0069 -79.6372 271° West 342 394 28,000  Level Cleveland Center
03:05PM 40.0092 -79.7625 271° West 343 395 28,000  Level Cleveland Center
03:06PM 40.0103 -79.8875 271° West 344 396 28,000  Level Cleveland Center
03:07PM 40.0117 -80.0403 271° West 346 398 28,000  Level Cleveland Center
03:08PM 40.0128 -80.1650 271° West 346 398 28,000  Level Cleveland Center
03:09PM 40.0142 -80.2897 271° West 345 397 28,000  Level Cleveland Center
03:10PM 40.0139 -80.4169 270° West 345 397 28,000 -180 Level Cleveland Center
03:11PM 40.0158 -80.5464 271° West 353 406 27,700 -1,020 Descending Cleveland Center
03:12PM 40.0161 -80.6769 270° West 357 411 25,900 -1,860 Descending Cleveland Center
03:13PM 40.0158 -80.8089 270° West 360 414 24,000 -2,040 Descending Cleveland Center
03:14PM 39.9889 -80.9592 257° West 359 413 21,700 -1,860 Descending Cleveland Center
03:15PM 39.9653 -81.0819 256° West 351 404 20,200 -1,440 Descending Cleveland Center
03:16PM 39.9425 -81.2025 256° West 347 399 18,800 -1,140 Descending Cleveland Center
03:17PM 39.9206 -81.3197 256° West 338 389 17,900 -1,140 Descending Cleveland Center
03:18PM 39.8939 -81.4475 255° West 334 384 16,500 -1,260 Descending Cleveland Center
03:19PM 39.8722 -81.5633 256° West 333 383 15,300 -1,200 Descending Cleveland Center
03:20PM 39.8492 -81.6764 255° West 328 377 14,100 -1,200 Descending Cleveland Center
03:21PM 39.8256 -81.7878 255° West 323 372 12,900 -1,200 Descending Cleveland Center
03:22PM 39.8047 -81.8997 256° West 322 371 11,700 -1,320 Descending Cleveland Center
03:23PM 39.7817 -82.0094 255° West 312 359 10,400 -1,260 Descending Indianapolis Center
03:24PM 39.7764 -82.0308 252° West 318 366 10,200 -840 Descending Indianapolis Center
03:24PM 39.7703 -82.0678 258° West 309 356 10,000 -240 Descending Indianapolis Center
03:25PM 39.7511 -82.1583 255° West 310 357 10,000  Level Indianapolis Center
03:25PM 39.7389 -82.2072 252° West 310 357 10,000  Level Indianapolis Center
03:26PM 39.7283 -82.2672 257° West 310 357 10,000  Level Indianapolis Center
03:26PM 39.7353 -82.3208 280° West 298 343 10,000 -300 Level Indianapolis Center
03:27PM 39.7603 -82.3528 316° Northwest 280 322 9,700 -1,620 Descending Indianapolis Center
03:27PM 39.7969 -82.3817 329° Northwest 252 290 8,400 -2,340 Descending Indianapolis Center
03:28PM 39.8339 -82.4119 328° Northwest 254 292 7,100 -1,560 Descending Indianapolis Center
03:29PM 39.8850 -82.4494 331° Northwest 265 305 6,000 -1,080 Descending Indianapolis Center
03:29PM 39.9164 -82.4761 327° Northwest 264 304 5,700 -1,020 Descending Indianapolis Center
03:30PM 39.9447 -82.5017 325° Northwest 263 303 5,000 -1,620 Descending Indianapolis Center
03:30PM 39.9700 -82.5336 316° Northwest 259 298 4,100 -1,020 Descending Indianapolis Center
03:31PM 39.9858 -82.5933 289° West 268 308 4,000 -120 Descending Indianapolis Center
03:32PM 39.9894 -82.6650 274° West 232 267 4,000  Level Indianapolis Center
03:32PM 39.9906 -82.6739 279° West 243 280 4,000 -780 Level Indianapolis Center
03:33PM 39.9925 -82.7444 272° West 153 176 3,000 -900 Descending Indianapolis Center
03:34PM 39.9969 -82.7936 277° West 175 201 2,200 -900 Descending Indianapolis Center
03:34PM 39.9975 -82.8028 275° West 156 180 2,100 -840 Descending Indianapolis Center
03:35PM 39.9986 -82.8356 273° West 126 145 1,500 -660 Descending Indianapolis Center
03:35PM 39.9994 -82.8392 287° West 149 171 1,500 -360 Level Indianapolis Center
03:36PM 40.0022 -82.8869 274° West 134 154 1,100 -420 Descending Indianapolis Center